Bookmark and Share
Track history (hours):
 

Whale Watcher II

More information available from US FCC via Universal Licensing System and Coast Guard Vessel Documentation Center.

Last reported at 2014-Apr-18 10:32 UTC. Time now 2014-Apr-19 17:10 UTC.
Position N 29°58' W 090°18'.

Length 22 m.

Type: Towing. MMSI: 367011790.

NotesDate/timePositionNaut miles runAvg speedWind from/ knotsBaromVisibWave heightAir tempDewpointWater temp
2014-Apr-18 10:32N 29°58' W 090°18'9 9.1
2014-Apr-18 09:33N 29°60' W 090°28'9 8.9
2014-Apr-18 08:33N 30°02' W 090°38'11 8.9
2014-Apr-18 07:19N 29°60' W 090°50'1 0.2
2014-Apr-17 22:26N 29°59' W 090°49'5 0.4
2014-Apr-17 11:30N 30°01' W 090°44'0 0.0
2014-Apr-17 10:33N 30°01' W 090°44'0 0.0
2014-Apr-17 09:32N 30°01' W 090°44'0 0.0
2014-Apr-17 08:31N 30°01' W 090°44'0 0.0
2014-Apr-17 07:30N 30°01' W 090°44'0 0.0
2014-Apr-17 06:22N 30°01' W 090°44'0 0.0
2014-Apr-17 05:31N 30°01' W 090°44'2 2.0
2014-Apr-17 04:33N 30°02' W 090°42'3 3.4
2014-Apr-17 03:33N 30°02' W 090°38'4 3.5
2014-Apr-17 02:33N 30°03' W 090°34'4 4.1
2014-Apr-17 01:33N 30°03' W 090°29'3 3.4
2014-Apr-17 00:33N 29°60' W 090°27'4 4.0
2014-Apr-16 23:33N 29°58' W 090°24'  
2014-Apr-13 06:18N 29°57' W 090°18'6 8.4
2014-Apr-13 05:32N 29°60' W 090°25'1 1.2
2014-Apr-13 04:33N 29°60' W 090°26'0 0.0
2014-Apr-13 03:33N 29°60' W 090°26'0 0.0
2014-Apr-13 02:33N 29°60' W 090°26'0 0.0
2014-Apr-13 01:33N 29°60' W 090°26'3 3.3
2014-Apr-13 00:33N 29°57' W 090°24'  

Dump ship's entire track history

sailing weather and tide predictions

Whale Watcher II — WDB8211 — position and weather